Time;durP1;ratioP1;P1;durP2;ratioP2;P2;SDS_P1;SDS_P2;PMS_P1;PMS_P2;Temp;Humidity;BMP_temperature;BMP_pressure;BME280_temperature;BME280_humidity;BME280_pressure;Samples;Min_cycle;Max_cycle;Signal;HPM_P1;HPM_P2
2024/04/14 00:02:06;;;;;;;14.20;4.25;;;14.80;99.90;;;;;;5448515;26;20006;-91
2024/04/14 00:04:32;;;;;;;7.97;2.22;;;14.80;99.90;;;;;;5416505;26;20370;-91
2024/04/14 00:07:18;;;;;;;6.57;1.98;;;14.80;99.90;;;;;;5396885;26;20018;-92
2024/04/14 00:09:44;;;;;;;12.93;4.15;;;14.80;99.90;;;;;;5447678;26;20025;-91
2024/04/14 00:12:10;;;;;;;16.42;5.03;;;14.80;99.90;;;;;;5431957;26;20015;-91
2024/04/14 00:14:36;;;;;;;17.50;3.05;;;14.80;99.90;;;;;;5417473;26;20003;-91
2024/04/14 00:17:01;;;;;;;14.15;2.88;;;14.80;99.90;;;;;;5416258;26;20011;-90
2024/04/14 00:19:27;;;;;;;13.23;3.30;;;14.80;99.90;;;;;;5447568;26;20007;-90
2024/04/14 00:21:53;;;;;;;14.43;4.68;;;14.80;99.90;;;;;;5416800;26;20003;-90
2024/04/14 00:24:19;;;;;;;16.65;5.00;;;14.80;99.90;;;;;;5448050;26;20362;-91
2024/04/14 00:26:48;;;;;;;14.63;4.25;;;14.90;99.90;;;;;;5425309;26;20022;-91
2024/04/14 00:29:14;;;;;;;14.32;4.80;;;14.90;99.90;;;;;;5444888;26;20501;-91
2024/04/14 00:31:40;;;;;;;15.68;5.22;;;14.90;99.90;;;;;;5448001;26;20021;-91
2024/04/14 00:34:06;;;;;;;15.13;2.60;;;14.90;99.90;;;;;;5416556;26;20014;-92
2024/04/14 00:36:32;;;;;;;14.70;4.55;;;14.80;99.90;;;;;;5447558;26;20477;-91
2024/04/14 00:39:18;;;;;;;16.17;4.25;;;14.80;99.90;;;;;;5395695;26;20016;-91
2024/04/14 00:41:47;;;;;;;14.23;4.50;;;14.80;99.90;;;;;;5417261;26;20017;-91
2024/04/14 00:44:19;;;;;;;;;;;14.80;99.90;;;;;;5416654;26;20018;-91
2024/04/14 00:47:06;;;;;;;10.85;2.70;;;14.80;99.90;;;;;;5396148;26;19940;-91
2024/04/14 00:49:35;;;;;;;12.63;4.50;;;14.70;99.90;;;;;;5415953;26;20007;-90
2024/04/14 00:52:03;;;;;;;7.80;2.10;;;14.70;99.90;;;;;;5412879;26;20003;-90
2024/04/14 00:54:32;;;;;;;9.60;2.13;;;14.70;99.90;;;;;;5424852;26;19998;-90
2024/04/14 00:57:02;;;;;;;10.80;3.63;;;14.70;99.90;;;;;;5417969;26;20377;-90
2024/04/14 00:59:30;;;;;;;11.65;3.90;;;14.70;99.90;;;;;;5419096;26;20015;-91
2024/04/14 01:01:56;;;;;;;9.32;2.10;;;14.80;99.90;;;;;;5422562;26;20003;-91
2024/04/14 01:04:22;;;;;;;13.05;4.07;;;14.70;99.90;;;;;;5447492;26;20021;-90
2024/04/14 01:06:48;;;;;;;14.98;3.97;;;14.70;99.90;;;;;;5415409;26;20046;-91
2024/04/14 01:09:14;;;;;;;14.73;4.55;;;14.80;99.90;;;;;;5420808;26;20436;-90
2024/04/14 01:11:41;;;;;;;12.20;1.65;;;14.70;99.90;;;;;;5412561;26;20072;-91
2024/04/14 01:14:09;;;;;;;11.95;3.20;;;14.60;99.90;;;;;;5428402;26;20010;-91
2024/04/14 01:16:39;;;;;;;11.43;2.97;;;14.60;99.90;;;;;;5447156;26;20480;-91
2024/04/14 01:19:05;;;;;;;12.68;2.90;;;14.60;99.90;;;;;;5444401;26;20494;-90
2024/04/14 01:21:32;;;;;;;13.13;3.17;;;14.60;99.90;;;;;;5447213;26;20007;-91
2024/04/14 01:23:58;;;;;;;11.27;2.92;;;14.50;99.90;;;;;;5421360;26;20039;-91
2024/04/14 01:26:25;;;;;;;12.48;2.10;;;14.50;99.90;;;;;;5447095;26;20011;-91
2024/04/14 01:28:51;;;;;;;7.25;1.98;;;14.40;99.90;;;;;;5415954;26;20017;-91
2024/04/14 01:31:17;;;;;;;11.57;2.97;;;14.30;99.90;;;;;;5421450;26;20018;-91
2024/04/14 01:33:44;;;;;;;4.63;1.42;;;14.30;99.90;;;;;;5415696;26;20002;-91
2024/04/14 01:36:10;;;;;;;7.60;1.95;;;14.20;99.90;;;;;;5415540;26;20094;-91
2024/04/14 01:38:35;;;;;;;9.70;2.05;;;14.20;99.90;;;;;;5446823;26;20014;-91
2024/04/14 01:41:01;;;;;;;6.43;1.90;;;14.20;99.90;;;;;;5415320;26;20014;-91
2024/04/14 01:43:47;;;;;;;7.13;1.13;;;14.20;99.90;;;;;;5392437;26;20014;-90
2024/04/14 01:46:33;;;;;;;5.10;0.95;;;14.00;99.90;;;;;;5405669;26;20054;-93
2024/04/14 01:48:59;;;;;;;7.03;1.40;;;13.80;99.90;;;;;;5445065;26;20076;-92
2024/04/14 01:51:24;;;;;;;7.30;1.80;;;13.70;99.90;;;;;;5446988;26;20015;-92
2024/04/14 01:54:12;;;;;;;4.50;1.20;;;13.70;99.90;;;;;;5431587;26;20053;-92
2024/04/14 01:56:38;;;;;;;8.65;2.20;;;13.70;99.90;;;;;;5422053;26;20017;-93
2024/04/14 01:59:04;;;;;;;10.45;2.33;;;13.70;99.90;;;;;;5446994;26;20014;-92
2024/04/14 02:01:30;;;;;;;8.82;2.20;;;13.70;99.90;;;;;;5425525;26;20007;-92
2024/04/14 02:03:56;;;;;;;9.35;1.85;;;13.60;99.90;;;;;;5476055;26;20013;-92
2024/04/14 02:06:22;;;;;;;6.15;1.33;;;13.60;99.90;;;;;;5414858;26;20007;-92
2024/04/14 02:08:51;;;;;;;5.28;0.90;;;13.50;99.90;;;;;;5415157;26;20014;-92
2024/04/14 02:11:17;;;;;;;9.95;2.22;;;13.30;99.90;;;;;;5444836;26;20076;-92
2024/04/14 02:13:43;;;;;;;10.38;2.10;;;13.30;99.90;;;;;;5446685;26;20014;-92
2024/04/14 02:16:09;;;;;;;7.88;0.98;;;13.30;99.90;;;;;;5475177;26;20015;-92
2024/04/14 02:18:35;;;;;;;5.72;0.70;;;13.20;99.90;;;;;;5414761;26;20018;-92
2024/04/14 02:21:01;;;;;;;5.15;1.30;;;13.10;99.90;;;;;;5446422;26;20080;-94
2024/04/14 02:23:27;;;;;;;11.50;2.45;;;13.00;99.90;;;;;;5446374;26;20021;-93
2024/04/14 02:26:13;;;;;;;6.13;1.02;;;13.00;99.90;;;;;;5391549;26;20022;-92
2024/04/14 02:28:39;;;;;;;6.60;0.93;;;13.00;99.90;;;;;;5418331;26;20541;-93
2024/04/14 02:31:04;;;;;;;9.25;1.98;;;12.90;99.90;;;;;;5445226;26;20346;-92
2024/04/14 02:33:30;;;;;;;4.97;0.82;;;12.90;99.90;;;;;;5445686;26;20470;-93
2024/04/14 02:36:01;;;;;;;8.30;1.67;;;12.80;99.90;;;;;;5421685;26;20021;-92
2024/04/14 02:38:27;;;;;;;9.82;2.13;;;12.90;99.90;;;;;;5425769;26;20002;-93
2024/04/14 02:40:59;;;;;;;11.73;1.98;;;12.90;99.90;;;;;;5444939;26;20466;-93
2024/04/14 02:43:26;;;;;;;3.65;0.95;;;12.90;99.90;;;;;;5445084;26;20458;-93
2024/04/14 02:45:58;;;;;;;5.45;0.77;;;12.80;99.90;;;;;;5418154;26;20003;-92
2024/04/14 02:48:49;;;;;;;6.20;1.88;;;12.70;99.90;;;;;;5420384;26;20006;-92
2024/04/14 02:51:35;;;;;;;8.43;1.10;;;12.70;99.90;;;;;;5394811;26;20003;-93
2024/04/14 02:54:13;;;;;;;4.70;1.05;;;12.60;99.90;;;;;;5417649;26;20018;-93
2024/04/14 02:56:39;;;;;;;7.22;1.40;;;12.50;99.90;;;;;;5420307;26;20018;-93
2024/04/14 02:59:25;;;;;;;7.20;1.25;;;12.50;99.90;;;;;;5417600;26;20010;-93
2024/04/14 03:01:51;;;;;;;7.20;1.15;;;12.40;99.90;;;;;;5422554;26;20003;-92
2024/04/14 03:04:17;;;;;;;5.47;1.13;;;12.20;99.90;;;;;;5413429;26;20018;-92
2024/04/14 03:06:42;;;;;;;9.27;2.42;;;12.20;99.90;;;;;;5445135;26;20017;-93
2024/04/14 03:09:08;;;;;;;8.32;1.48;;;12.20;99.90;;;;;;5444996;26;20007;-93
2024/04/14 03:11:54;;;;;;;3.35;0.90;;;12.20;99.90;;;;;;5416212;26;20490;-93
2024/04/14 03:14:20;;;;;;;6.70;1.50;;;12.10;99.90;;;;;;5413516;26;20746;-92
2024/04/14 03:16:47;;;;;;;13.07;3.00;;;12.10;99.90;;;;;;5413523;26;20079;-92
2024/04/14 03:19:33;;;;;;;7.93;1.05;;;12.10;99.90;;;;;;5393776;26;20002;-93
2024/04/14 03:22:19;;;;;;;8.85;1.30;;;12.10;99.90;;;;;;5393225;26;20371;-92
2024/04/14 03:25:05;;;;;;;6.32;1.50;;;12.00;99.90;;;;;;5400826;26;20022;-93
2024/04/14 03:27:51;;;;;;;7.03;1.17;;;12.00;99.90;;;;;;5418565;26;20007;-92
2024/04/14 03:30:36;;;;;;;8.38;1.20;;;11.90;99.90;;;;;;5404519;26;20013;-92
2024/04/14 03:33:22;;;;;;;11.30;2.47;;;11.90;99.90;;;;;;5400511;26;19999;-92
2024/04/14 03:36:08;;;;;;;10.40;2.42;;;12.00;99.90;;;;;;5391558;26;20003;-93
2024/04/14 03:38:54;;;;;;;4.80;0.90;;;11.90;99.90;;;;;;5403240;26;20812;-93
2024/04/14 03:41:39;;;;;;;6.55;1.20;;;11.80;99.90;;;;;;5405139;26;19999;-93
2024/04/14 03:44:29;;;;;;;5.60;0.90;;;11.80;99.90;;;;;;5415180;26;20007;-92
2024/04/14 03:47:14;;;;;;;9.35;1.20;;;11.70;99.90;;;;;;5416759;26;20006;-92
2024/04/14 03:50:04;;;;;;;7.63;1.52;;;11.70;99.90;;;;;;5391347;26;20026;-92
2024/04/14 03:52:50;;;;;;;5.78;0.93;;;11.60;99.90;;;;;;5400280;26;20014;-92
2024/04/14 03:55:36;;;;;;;7.20;1.58;;;11.60;99.90;;;;;;5397972;26;20021;-93
2024/04/14 03:58:23;;;;;;;14.10;2.50;;;11.60;99.90;;;;;;5401329;26;20060;-92
2024/04/14 04:01:09;;;;;;;11.65;2.70;;;11.60;99.90;;;;;;5399431;26;20003;-93
2024/04/14 04:03:55;;;;;;;9.95;2.53;;;11.60;99.90;;;;;;5393108;26;20017;-92
2024/04/14 04:06:40;;;;;;;7.00;1.23;;;11.70;99.90;;;;;;5420617;26;20003;-92
2024/04/14 04:09:26;;;;;;;7.13;1.23;;;11.60;99.90;;;;;;5392691;26;20010;-92
2024/04/14 04:12:12;;;;;;;5.57;0.90;;;11.50;99.90;;;;;;5427606;26;20007;-93
2024/04/14 04:14:57;;;;;;;4.70;1.20;;;11.50;99.90;;;;;;5419890;26;20043;-93
2024/04/14 04:17:43;;;;;;;5.57;1.27;;;11.40;99.90;;;;;;5426784;26;20014;-93
2024/04/14 04:20:29;;;;;;;4.75;0.93;;;11.30;99.90;;;;;;5416628;26;20025;-92
2024/04/14 04:23:15;;;;;;;10.55;1.48;;;11.20;99.90;;;;;;5426409;26;20369;-93
2024/04/14 04:26:01;;;;;;;4.65;1.08;;;11.20;99.90;;;;;;5396901;26;20003;-93
2024/04/14 04:28:47;;;;;;;5.25;0.93;;;11.10;99.90;;;;;;5394675;26;20011;-92
2024/04/14 04:31:32;;;;;;;8.30;1.40;;;11.10;99.90;;;;;;5422115;26;20423;-92
2024/04/14 04:33:58;;;;;;;12.65;2.97;;;11.00;99.90;;;;;;5413557;26;20038;-92
2024/04/14 04:36:24;;;;;;;7.45;1.42;;;11.00;99.90;;;;;;5434267;26;20367;-93
2024/04/14 04:38:53;;;;;;;4.97;1.10;;;11.00;99.90;;;;;;5387994;26;20003;-92
2024/04/14 04:41:19;;;;;;;5.90;1.58;;;10.90;99.90;;;;;;5416326;26;20470;-93
2024/04/14 04:43:45;;;;;;;7.43;1.58;;;10.80;99.90;;;;;;5423947;26;20010;-92
2024/04/14 04:46:10;;;;;;;7.85;1.67;;;10.80;99.90;;;;;;5432545;26;20002;-93
2024/04/14 04:48:36;;;;;;;7.78;1.50;;;10.80;99.90;;;;;;5425851;26;20079;-93
2024/04/14 04:51:02;;;;;;;3.58;0.85;;;10.70;99.90;;;;;;5446570;26;20038;-93
2024/04/14 04:53:28;;;;;;;14.35;3.20;;;10.70;99.90;;;;;;5422643;26;20486;-92
2024/04/14 04:55:54;;;;;;;5.22;0.82;;;10.70;99.90;;;;;;5424125;26;20018;-92
2024/04/14 04:58:21;;;;;;;6.07;0.90;;;10.70;99.90;;;;;;5415749;26;20018;-92
2024/04/14 05:00:51;;;;;;;5.38;1.38;;;10.60;99.90;;;;;;5446979;26;20014;-92
2024/04/14 05:03:17;;;;;;;5.85;0.75;;;10.60;99.90;;;;;;5415877;26;20038;-92
2024/04/14 05:05:56;;;;;;;6.22;1.38;;;10.60;99.90;;;;;;5426194;26;20006;-91
2024/04/14 05:08:23;;;;;;;6.93;1.33;;;10.60;99.90;;;;;;5433654;26;20042;-92
2024/04/14 05:10:49;;;;;;;7.20;1.35;;;10.50;99.90;;;;;;5424496;26;20010;-92
2024/04/14 05:13:15;;;;;;;6.35;1.02;;;10.60;99.90;;;;;;5420910;26;20025;-92
2024/04/14 05:15:42;;;;;;;12.23;2.92;;;10.60;99.90;;;;;;5421947;26;20031;-92
2024/04/14 05:18:08;;;;;;;9.13;1.30;;;10.60;99.90;;;;;;5421971;26;20003;-92
2024/04/14 05:20:34;;;;;;;7.50;1.58;;;10.60;99.90;;;;;;5447284;26;20002;-92
2024/04/14 05:23:00;;;;;;;14.60;1.38;;;10.60;99.90;;;;;;5473983;26;20026;-92
2024/04/14 05:25:26;;;;;;;8.55;1.30;;;10.60;99.90;;;;;;5444654;26;20014;-92
2024/04/14 05:27:51;;;;;;;12.93;1.58;;;10.60;99.90;;;;;;5429715;26;20014;-93
2024/04/14 05:30:17;;;;;;;7.25;1.38;;;10.60;99.90;;;;;;5421669;26;20068;-93
2024/04/14 05:32:43;;;;;;;10.88;1.00;;;10.60;99.90;;;;;;5418198;26;20003;-92
2024/04/14 05:35:09;;;;;;;6.45;1.13;;;10.60;99.90;;;;;;5437805;26;20475;-93
2024/04/14 05:37:34;;;;;;;7.70;1.10;;;10.60;99.90;;;;;;5414849;26;20006;-92
2024/04/14 05:40:00;;;;;;;3.08;0.75;;;10.60;99.90;;;;;;5415085;26;20006;-92
2024/04/14 05:42:26;;;;;;;4.63;0.77;;;10.60;99.90;;;;;;5446797;26;20011;-92
2024/04/14 05:44:52;;;;;;;6.95;1.13;;;10.60;99.90;;;;;;5447285;26;20014;-93
2024/04/14 05:47:17;;;;;;;5.03;1.02;;;10.50;99.90;;;;;;5417654;26;20356;-93
2024/04/14 05:49:43;;;;;;;9.15;1.20;;;10.60;99.90;;;;;;5428904;26;20482;-92
2024/04/14 05:52:09;;;;;;;10.00;1.80;;;10.60;99.90;;;;;;5421393;26;20003;-92
2024/04/14 05:54:35;;;;;;;5.53;1.00;;;10.60;99.90;;;;;;5446231;26;20657;-93
2024/04/14 05:57:00;;;;;;;8.07;1.30;;;10.60;99.90;;;;;;5419115;26;20083;-94
2024/04/14 05:59:27;;;;;;;9.23;1.27;;;10.60;99.90;;;;;;5429334;26;20018;-94
2024/04/14 06:01:53;;;;;;;4.43;0.90;;;10.60;99.90;;;;;;5422946;26;20007;-92
2024/04/14 06:04:18;;;;;;;9.52;1.67;;;10.60;99.90;;;;;;5446996;26;20014;-93
2024/04/14 06:06:45;;;;;;;5.97;1.25;;;10.60;99.90;;;;;;5429110;26;20019;-92
2024/04/14 06:09:32;;;;;;;4.22;1.02;;;10.60;99.90;;;;;;5397214;26;20802;-92
2024/04/14 06:11:57;;;;;;;8.02;1.33;;;10.60;99.90;;;;;;5437325;26;20469;-93
2024/04/14 06:14:23;;;;;;;8.50;1.20;;;10.60;99.90;;;;;;5419183;26;20025;-93
2024/04/14 06:16:49;;;;;;;8.98;1.10;;;10.70;99.90;;;;;;5446031;26;20022;-92
2024/04/14 06:19:17;;;;;;;2.88;0.73;;;10.70;99.90;;;;;;5428703;26;20816;-92
2024/04/14 06:21:43;;;;;;;11.15;1.48;;;10.70;99.90;;;;;;5367671;26;20496;-92
2024/04/14 06:24:09;;;;;;;8.48;1.27;;;10.70;99.90;;;;;;5365656;26;20008;-92
2024/04/14 06:26:35;;;;;;;5.40;0.80;;;10.70;99.90;;;;;;5383793;26;20864;-93
2024/04/14 06:29:01;;;;;;;11.50;2.47;;;10.70;99.90;;;;;;5370626;26;20019;-92
2024/04/14 06:31:27;;;;;;;7.72;1.30;;;10.80;99.90;;;;;;5374386;26;20284;-92
2024/04/14 06:33:53;;;;;;;14.73;2.75;;;10.80;99.90;;;;;;5372099;26;20003;-92
2024/04/14 06:36:19;;;;;;;14.60;3.20;;;10.90;99.90;;;;;;5366108;26;20015;-92
2024/04/14 06:38:45;;;;;;;4.90;0.98;;;10.90;99.90;;;;;;5368733;26;20003;-92
2024/04/14 06:41:11;;;;;;;4.80;0.70;;;10.90;99.90;;;;;;5373287;26;20190;-92
2024/04/14 06:43:37;;;;;;;10.35;1.08;;;10.90;99.90;;;;;;5405962;26;20014;-92
2024/04/14 06:46:04;;;;;;;3.33;0.50;;;10.90;99.90;;;;;;5374621;26;20292;-91
2024/04/14 06:48:30;;;;;;;2.72;0.35;;;10.90;99.90;;;;;;5370016;26;20015;-92
2024/04/14 06:50:55;;;;;;;9.48;1.70;;;10.90;99.90;;;;;;5369221;26;20047;-91
2024/04/14 06:53:22;;;;;;;7.60;2.03;;;10.90;99.90;;;;;;5388620;26;20083;-92
2024/04/14 06:55:50;;;;;;;4.07;0.80;;;10.90;99.90;;;;;;5373185;26;20030;-92
2024/04/14 06:58:16;;;;;;;5.85;0.85;;;11.00;99.90;;;;;;5401456;26;20655;-91
2024/04/14 07:00:43;;;;;;;2.55;0.50;;;11.00;99.90;;;;;;5424445;26;19999;-92
2024/04/14 07:03:09;;;;;;;8.15;1.48;;;11.00;99.90;;;;;;5411035;26;20702;-93
2024/04/14 07:05:35;;;;;;;11.75;2.40;;;11.00;99.90;;;;;;5445384;26;20018;-92
2024/04/14 07:08:01;;;;;;;5.80;2.05;;;11.10;99.90;;;;;;5445615;26;20534;-91
2024/04/14 07:10:26;;;;;;;5.05;1.13;;;11.10;99.90;;;;;;5421483;26;20076;-92
2024/04/14 07:12:53;;;;;;;5.45;0.93;;;11.10;99.90;;;;;;5428056;26;20003;-92
2024/04/14 07:15:19;;;;;;;4.57;0.65;;;11.10;99.90;;;;;;5443696;26;20039;-92
2024/04/14 07:17:46;;;;;;;9.65;1.30;;;11.10;99.90;;;;;;5442323;26;20391;-91
2024/04/14 07:20:12;;;;;;;3.35;0.85;;;11.10;99.90;;;;;;5426522;26;20482;-91
2024/04/14 07:22:38;;;;;;;4.47;0.82;;;11.10;99.90;;;;;;5413174;26;20417;-91
2024/04/14 07:25:04;;;;;;;5.25;0.90;;;11.10;99.90;;;;;;5444516;26;20006;-91
2024/04/14 07:27:29;;;;;;;10.13;2.53;;;11.20;99.90;;;;;;5420001;26;20014;-92
2024/04/14 07:29:55;;;;;;;10.50;2.30;;;11.20;99.20;;;;;;5470910;26;20007;-92
2024/04/14 07:32:21;;;;;;;5.32;0.95;;;11.30;99.00;;;;;;5440946;26;20527;-93
2024/04/14 07:34:47;;;;;;;5.00;1.02;;;11.30;98.70;;;;;;5415848;26;20019;-92
2024/04/14 07:37:13;;;;;;;5.03;1.63;;;11.30;98.40;;;;;;5416462;26;20083;-92
2024/04/14 07:39:39;;;;;;;5.70;0.88;;;11.30;98.50;;;;;;5422313;26;20012;-93
2024/04/14 07:42:08;;;;;;;6.35;0.82;;;11.30;98.40;;;;;;5413835;26;20466;-92
2024/04/14 07:44:34;;;;;;;5.43;1.15;;;11.30;98.20;;;;;;5413060;26;20029;-92
2024/04/14 07:47:00;;;;;;;7.63;1.00;;;11.40;98.30;;;;;;5414546;26;20007;-92
2024/04/14 07:49:26;;;;;;;3.85;0.80;;;11.40;97.50;;;;;;5415240;26;20017;-93
2024/04/14 07:51:51;;;;;;;5.25;0.65;;;11.50;97.10;;;;;;5422859;26;20087;-93
2024/04/14 07:54:17;;;;;;;2.42;0.50;;;11.50;96.70;;;;;;5419414;26;20017;-92
2024/04/14 07:56:43;;;;;;;5.63;0.93;;;11.60;96.80;;;;;;5416723;26;20021;-91
2024/04/14 07:59:09;;;;;;;4.97;1.02;;;11.70;97.10;;;;;;5425935;26;20038;-92
2024/04/14 08:01:35;;;;;;;6.70;1.15;;;11.70;96.20;;;;;;5444927;26;20011;-92
2024/04/14 08:04:01;;;;;;;4.95;0.70;;;11.80;96.50;;;;;;5413027;26;20017;-92
2024/04/14 08:06:28;;;;;;;9.90;1.73;;;11.90;96.20;;;;;;5423156;26;20015;-92
2024/04/14 08:08:53;;;;;;;15.95;1.30;;;11.90;94.70;;;;;;5444804;26;20373;-93
2024/04/14 08:11:20;;;;;;;9.18;1.92;;;12.00;94.60;;;;;;5399835;26;20007;-92
2024/04/14 08:13:46;;;;;;;2.72;0.88;;;12.10;92.70;;;;;;5420342;26;20085;-91
2024/04/14 08:16:12;;;;;;;8.68;1.05;;;12.10;91.30;;;;;;5426331;26;20023;-92
2024/04/14 08:18:38;;;;;;;4.10;0.40;;;12.10;92.70;;;;;;5448141;26;20007;-92
2024/04/14 08:21:04;;;;;;;8.10;1.90;;;12.20;92.40;;;;;;5416013;26;20003;-92
2024/04/14 08:23:29;;;;;;;5.28;0.75;;;12.20;90.20;;;;;;5422559;26;20006;-93
2024/04/14 08:25:55;;;;;;;7.57;1.63;;;12.20;90.70;;;;;;5447838;26;20013;-93
2024/04/14 08:28:21;;;;;;;9.18;1.17;;;12.20;91.30;;;;;;5424647;26;20031;-92
2024/04/14 08:30:47;;;;;;;6.93;1.27;;;12.20;91.60;;;;;;5447981;26;20323;-92
2024/04/14 08:33:13;;;;;;;6.22;1.02;;;12.30;92.50;;;;;;5447646;26;20003;-92
2024/04/14 08:35:39;;;;;;;4.38;1.05;;;12.30;92.10;;;;;;5433720;26;20007;-93
2024/04/14 08:38:05;;;;;;;6.70;1.15;;;12.40;92.40;;;;;;5392714;26;20013;-92
2024/04/14 08:40:31;;;;;;;5.88;0.65;;;12.40;92.30;;;;;;5432147;26;20006;-92
2024/04/14 08:42:57;;;;;;;11.20;2.00;;;12.30;91.10;;;;;;5475960;26;20014;-92
2024/04/14 08:45:24;;;;;;;2.33;0.52;;;12.40;90.80;;;;;;5422872;26;20017;-91
2024/04/14 08:47:53;;;;;;;5.22;0.75;;;12.30;90.90;;;;;;5429055;26;20011;-92
2024/04/14 08:50:23;;;;;;;3.45;0.82;;;12.20;91.30;;;;;;5446646;26;20383;-92
2024/04/14 08:52:49;;;;;;;10.50;2.20;;;12.30;91.20;;;;;;5415358;26;20015;-92
2024/04/14 08:55:15;;;;;;;9.90;1.23;;;12.50;91.60;;;;;;5419381;26;20014;-92
2024/04/14 08:57:41;;;;;;;4.90;0.88;;;12.70;91.70;;;;;;5415306;26;20004;-93
2024/04/14 09:00:18;;;;;;;3.03;0.77;;;12.80;91.80;;;;;;5474976;26;20027;-93
2024/04/14 09:02:45;;;;;;;9.93;2.72;;;12.90;91.30;;;;;;5427980;26;20007;-92
2024/04/14 09:05:15;;;;;;;12.50;2.75;;;13.00;88.10;;;;;;5440230;26;20003;-93
2024/04/14 09:07:42;;;;;;;1.00;0.38;;;13.10;87.30;;;;;;5416308;26;20459;-93
2024/04/14 09:10:07;;;;;;;4.03;0.85;;;13.10;87.80;;;;;;5419405;26;20110;-93
2024/04/14 09:12:33;;;;;;;4.03;0.50;;;13.20;89.70;;;;;;5446779;26;20019;-93
2024/04/14 09:14:59;;;;;;;3.58;0.65;;;13.20;88.50;;;;;;5442384;26;20024;-94
2024/04/14 09:17:25;;;;;;;6.32;0.88;;;13.10;86.70;;;;;;5448146;26;20396;-93
2024/04/14 09:19:51;;;;;;;3.42;0.90;;;13.10;87.50;;;;;;5439078;26;20011;-93
2024/04/14 09:22:20;;;;;;;7.57;1.83;;;13.00;87.30;;;;;;5421679;26;20017;-93
2024/04/14 09:24:46;;;;;;;11.77;2.28;;;13.10;86.80;;;;;;5425455;26;20006;-93
2024/04/14 09:27:12;;;;;;;4.63;0.75;;;13.10;85.50;;;;;;5395183;26;20003;-93
2024/04/14 09:29:38;;;;;;;12.05;2.15;;;13.10;86.00;;;;;;5388439;26;20010;-94
2024/04/14 09:32:04;;;;;;;7.70;2.03;;;13.20;89.40;;;;;;5474573;26;20007;-93
2024/04/14 09:34:30;;;;;;;2.88;0.40;;;13.30;88.50;;;;;;5447772;26;20017;-94
2024/04/14 09:36:57;;;;;;;1.27;0.40;;;13.30;87.70;;;;;;5415534;26;20010;-93
2024/04/14 09:39:26;;;;;;;4.57;0.88;;;13.50;87.00;;;;;;5424891;26;20076;-91
2024/04/14 09:41:55;;;;;;;10.95;2.08;;;13.70;87.30;;;;;;5415804;26;20031;-94
2024/04/14 09:44:21;;;;;;;8.95;1.92;;;13.80;86.30;;;;;;5446013;26;20027;-93
2024/04/14 09:46:49;;;;;;;4.53;0.75;;;13.90;82.70;;;;;;5415840;26;20039;-93
2024/04/14 09:49:17;;;;;;;3.25;0.60;;;13.80;83.20;;;;;;5420127;26;20067;-92
2024/04/14 09:51:46;;;;;;;5.32;0.93;;;13.80;83.80;;;;;;5447314;26;20342;-93
2024/04/14 09:54:16;;;;;;;2.28;0.57;;;13.70;80.60;;;;;;5415668;26;20007;-93
2024/04/14 09:56:42;;;;;;;7.85;1.50;;;13.50;78.20;;;;;;5447048;26;20339;-92
2024/04/14 09:59:08;;;;;;;7.85;1.52;;;13.50;78.00;;;;;;5474936;26;20105;-92
2024/04/14 10:01:40;;;;;;;2.10;0.52;;;13.60;77.30;;;;;;5410758;26;20008;-93
2024/04/14 10:04:07;;;;;;;8.30;1.88;;;13.50;77.50;;;;;;5418716;26;20035;-92
2024/04/14 10:06:36;;;;;;;2.90;0.75;;;13.50;78.90;;;;;;5415144;26;20002;-93
2024/04/14 10:09:02;;;;;;;2.35;0.38;;;13.60;79.30;;;;;;5415228;26;20003;-93
2024/04/14 10:11:30;;;;;;;8.35;1.73;;;13.60;79.40;;;;;;5416650;26;20031;-92
2024/04/14 10:13:56;;;;;;;12.93;2.30;;;13.80;78.60;;;;;;5443898;26;20002;-92
2024/04/14 10:16:24;;;;;;;4.78;0.82;;;14.00;79.40;;;;;;5415275;26;20025;-93
2024/04/14 10:18:50;;;;;;;4.97;0.70;;;14.10;78.90;;;;;;5414945;26;20362;-93
2024/04/14 10:21:18;;;;;;;3.75;0.63;;;14.20;79.40;;;;;;5417636;26;20481;-93
2024/04/14 10:23:48;;;;;;;9.45;1.80;;;14.30;79.50;;;;;;5424979;26;20003;-92
2024/04/14 10:26:17;;;;;;;3.20;0.90;;;14.50;78.90;;;;;;5423284;26;20080;-93
2024/04/14 10:28:55;;;;;;;6.35;1.10;;;14.50;79.20;;;;;;5417749;26;20006;-93
2024/04/14 10:31:26;;;;;;;5.82;0.75;;;14.40;78.50;;;;;;5429022;26;20038;-93
2024/04/14 10:34:05;;;;;;;9.95;1.90;;;14.50;80.00;;;;;;5412924;26;20783;-93
2024/04/14 10:36:32;;;;;;;5.82;0.68;;;14.50;77.90;;;;;;5429753;26;20019;-92
2024/04/14 10:38:58;;;;;;;10.93;1.90;;;14.50;78.70;;;;;;5427569;26;20007;-93
2024/04/14 10:41:24;;;;;;;9.63;2.22;;;14.60;78.60;;;;;;5443836;26;20105;-93
2024/04/14 10:43:50;;;;;;;11.60;2.47;;;14.70;79.70;;;;;;5446067;26;20014;-93
2024/04/14 10:46:16;;;;;;;5.28;0.98;;;14.80;81.20;;;;;;5445031;26;20007;-93
2024/04/14 10:48:46;;;;;;;6.45;1.48;;;14.80;81.40;;;;;;5429748;26;20025;-93
2024/04/14 10:51:13;;;;;;;12.82;2.65;;;14.60;80.40;;;;;;5416652;26;20134;-93
2024/04/14 10:53:39;;;;;;;4.22;1.00;;;14.60;81.00;;;;;;5444967;26;20380;-93
2024/04/14 10:56:05;;;;;;;12.02;2.42;;;14.50;82.20;;;;;;5418055;26;20534;-92
2024/04/14 10:58:36;;;;;;;6.32;1.65;;;14.60;80.30;;;;;;5414899;26;20021;-94
2024/04/14 11:01:02;;;;;;;5.47;0.95;;;14.50;78.20;;;;;;5415267;26;20002;-92
2024/04/14 11:03:28;;;;;;;2.80;0.70;;;14.50;78.80;;;;;;5416022;26;20025;-93
2024/04/14 11:05:56;;;;;;;6.05;1.52;;;14.50;78.30;;;;;;5415066;26;20003;-93
2024/04/14 11:08:23;;;;;;;10.77;1.90;;;14.30;75.10;;;;;;5419586;26;20011;-92
2024/04/14 11:10:51;;;;;;;11.27;2.28;;;14.30;75.20;;;;;;5414373;26;20484;-93
2024/04/14 11:13:18;;;;;;;3.58;0.80;;;14.50;77.60;;;;;;5422226;26;20063;-94
2024/04/14 11:15:45;;;;;;;8.80;1.73;;;14.70;78.00;;;;;;5418657;26;20006;-92
2024/04/14 11:18:11;;;;;;;10.63;1.98;;;15.00;77.50;;;;;;5414644;26;20383;-93
2024/04/14 11:20:37;;;;;;;9.23;1.80;;;15.30;73.40;;;;;;5446092;26;20502;-93
2024/04/14 11:23:07;;;;;;;7.57;1.85;;;15.20;73.20;;;;;;5424872;26;20006;-93
2024/04/14 11:25:33;;;;;;;3.30;0.63;;;15.20;75.40;;;;;;5439473;26;20065;-93
2024/04/14 11:28:00;;;;;;;12.20;2.20;;;15.30;77.20;;;;;;5445477;26;20010;-94
2024/04/14 11:30:30;;;;;;;4.03;0.88;;;15.30;72.70;;;;;;5413779;26;20007;-93
2024/04/14 11:33:01;;;;;;;7.05;1.08;;;15.20;72.40;;;;;;5421677;26;20010;-93
2024/04/14 11:35:27;;;;;;;6.07;1.50;;;15.10;71.60;;;;;;5429974;26;20006;-94
2024/04/14 11:37:54;;;;;;;6.88;1.45;;;15.30;71.70;;;;;;5444808;26;20052;-93
2024/04/14 11:40:24;;;;;;;8.65;1.58;;;15.30;71.60;;;;;;5443927;26;20819;-93
2024/04/14 11:42:50;;;;;;;2.92;0.65;;;15.40;70.80;;;;;;5416797;26;20489;-93
2024/04/14 11:45:17;;;;;;;5.65;0.80;;;15.40;72.50;;;;;;5418818;26;20493;-93
2024/04/14 11:47:43;;;;;;;7.82;1.58;;;15.50;71.80;;;;;;5447804;26;20006;-94
2024/04/14 11:50:09;;;;;;;8.25;1.70;;;15.60;69.90;;;;;;5422665;26;20002;-92
2024/04/14 11:52:35;;;;;;;9.30;2.30;;;15.50;69.10;;;;;;5418306;26;20075;-93
2024/04/14 11:55:03;;;;;;;3.30;0.85;;;15.10;68.80;;;;;;5415345;26;20019;-92
2024/04/14 11:57:29;;;;;;;3.92;0.85;;;14.90;69.60;;;;;;5454299;26;20007;-93
2024/04/14 11:59:55;;;;;;;9.75;1.90;;;14.70;70.90;;;;;;5453291;26;20083;-93
2024/04/14 12:02:21;;;;;;;7.82;1.67;;;14.90;71.00;;;;;;5443298;26;20007;-93
2024/04/14 12:04:51;;;;;;;8.45;1.60;;;14.90;70.80;;;;;;5421316;26;20057;-93
2024/04/14 12:07:17;;;;;;;2.88;0.80;;;15.00;71.90;;;;;;5421392;26;20039;-93
2024/04/14 12:09:44;;;;;;;8.20;1.75;;;14.90;72.30;;;;;;5446497;26;20007;-93
2024/04/14 12:12:11;;;;;;;10.40;2.00;;;14.90;70.90;;;;;;5416509;26;20035;-94
2024/04/14 12:14:37;;;;;;;4.75;1.10;;;14.90;70.40;;;;;;5416050;26;20010;-94
2024/04/14 12:17:03;;;;;;;5.65;1.05;;;15.00;72.00;;;;;;5424455;26;20351;-93
2024/04/14 12:19:29;;;;;;;5.38;0.88;;;15.00;69.20;;;;;;5399448;26;20072;-93
2024/04/14 12:21:55;;;;;;;9.35;2.00;;;15.30;69.70;;;;;;5444095;26;20741;-93
2024/04/14 12:24:20;;;;;;;4.65;0.80;;;15.30;68.50;;;;;;5418563;26;20112;-94
2024/04/14 12:26:46;;;;;;;4.40;1.02;;;15.50;69.00;;;;;;5424131;26;21916;-94
2024/04/14 12:29:12;;;;;;;8.07;1.85;;;15.70;68.80;;;;;;5426587;26;20075;-93
2024/04/14 12:31:38;;;;;;;8.18;1.67;;;15.90;67.60;;;;;;5431878;26;20002;-94
2024/04/14 12:34:03;;;;;;;9.90;2.08;;;16.00;65.70;;;;;;5415919;26;20021;-93
2024/04/14 12:36:29;;;;;;;5.03;0.93;;;15.90;65.00;;;;;;5447880;26;20071;-94
2024/04/14 12:38:55;;;;;;;9.63;1.80;;;15.60;66.30;;;;;;5425354;26;20017;-93
2024/04/14 12:41:21;;;;;;;4.72;0.95;;;15.50;65.30;;;;;;5447825;26;20038;-94
2024/04/14 12:43:47;;;;;;;9.27;2.00;;;15.60;66.90;;;;;;5448108;26;20021;-93
2024/04/14 12:46:13;;;;;;;9.52;1.80;;;15.80;68.50;;;;;;5419790;26;20780;-93
2024/04/14 12:48:43;;;;;;;7.47;1.83;;;15.90;67.60;;;;;;5417706;26;20017;-93
2024/04/14 12:51:09;;;;;;;9.65;1.98;;;15.80;65.40;;;;;;5428220;26;20011;-93
2024/04/14 12:53:35;;;;;;;2.83;0.57;;;15.70;65.70;;;;;;5415678;26;20051;-93
2024/04/14 12:56:01;;;;;;;8.85;1.58;;;15.50;65.30;;;;;;5416926;26;20002;-93